Time;durP1;ratioP1;P1;durP2;ratioP2;P2;SDS_P1;SDS_P2;PMS_P1;PMS_P2;Temp;Humidity;BMP_temperature;BMP_pressure;BME280_temperature;BME280_humidity;BME280_pressure;Samples;Min_cycle;Max_cycle;Signal;HPM_P1;HPM_P2
2023/04/26 00:06:55;;;;;;;10.27;7.50;;;6.90;99.60;;;;;;3286839;22;20471;-90
2023/04/26 00:14:27;;;;;;;9.73;6.88;;;6.80;99.90;;;;;;5148745;22;20226;-90
2023/04/26 00:16:55;;;;;;;9.37;7.03;;;6.90;99.20;;;;;;5429787;22;21023;-91
2023/04/26 00:19:22;;;;;;;7.90;6.23;;;6.80;98.70;;;;;;5269304;22;20201;-91
2023/04/26 00:21:49;;;;;;;8.52;6.45;;;6.80;98.80;;;;;;5090767;28;20182;-90
2023/04/26 00:24:18;;;;;;;8.65;6.93;;;6.80;99.00;;;;;;5371950;22;20312;-93
2023/04/26 00:26:45;;;;;;;9.80;7.70;;;6.70;99.50;;;;;;5509051;22;20205;-92
2023/04/26 00:34:22;;;;;;;12.35;8.57;;;6.60;99.90;;;;;;5370040;22;20240;-91
2023/04/26 01:07:55;;;;;;;10.60;7.60;;;6.60;99.90;;;;;;5574579;22;20220;-92
2023/04/26 01:52:57;;;;;;;9.57;6.57;;;6.30;99.90;;;;;;5659649;22;20173;-91
2023/04/26 02:00:36;;;;;;;9.83;6.13;;;6.30;99.90;;;;;;5544297;22;20237;-92
2023/04/26 02:10:50;;;;;;;8.90;6.55;;;6.30;99.90;;;;;;5934566;23;20286;-92
2023/04/26 05:01:31;;;;;;;8.13;6.10;;;6.10;99.90;;;;;;5039968;28;21607;-91
2023/04/26 05:03:58;;;;;;;8.55;6.72;;;6.20;99.90;;;;;;5399561;23;20959;-90
2023/04/26 05:06:26;;;;;;;8.57;6.73;;;6.20;99.90;;;;;;5389624;22;20207;-91
2023/04/26 05:08:53;;;;;;;9.57;6.17;;;6.20;99.90;;;;;;5061265;28;20233;-92
2023/04/26 05:11:20;;;;;;;9.50;6.33;;;6.30;99.90;;;;;;5045550;28;20188;-93
2023/04/26 05:16:22;;;;;;;8.45;6.15;;;6.30;99.90;;;;;;5669737;23;21160;-90
2023/04/26 05:21:26;;;;;;;8.70;6.50;;;6.40;99.70;;;;;;5533387;22;20263;-92
2023/04/26 06:18:09;;;;;;;10.07;6.53;;;7.10;96.70;;;;;;5219783;23;20779;-93
2023/04/26 06:25:50;;;;;;;10.23;7.32;;;7.20;95.50;;;;;;6030407;22;20327;-92
2023/04/26 06:36:14;;;;;;;10.98;6.80;;;7.30;96.10;;;;;;5208914;22;20220;-93
2023/04/26 06:38:41;;;;;;;7.65;5.75;;;7.30;96.40;;;;;;5023087;28;20199;-93
2023/04/26 06:43:41;;;;;;;8.35;6.20;;;7.60;95.60;;;;;;5045199;28;20203;-95
2023/04/26 07:14:39;;;;;;;7.85;4.55;;;8.50;86.80;;;;;;5020172;28;20224;-93
2023/04/26 07:17:06;;;;;;;10.13;4.88;;;8.40;90.30;;;;;;5065768;23;20310;-94
2023/04/26 07:22:18;;;;;;;8.30;4.88;;;9.10;87.10;;;;;;5826609;22;20224;-91
2023/04/26 07:24:45;;;;;;;7.65;4.45;;;9.40;82.70;;;;;;5047064;28;20222;-92
2023/04/26 07:27:12;;;;;;;8.68;4.95;;;9.40;82.60;;;;;;5493525;23;20201;-92
2023/04/26 07:29:39;;;;;;;6.90;4.80;;;9.70;80.80;;;;;;5396478;22;20237;-93
2023/04/26 07:32:06;;;;;;;6.85;4.20;;;9.70;80.30;;;;;;5300368;22;20236;-93
2023/04/26 07:39:51;;;;;;;8.70;5.05;;;9.90;76.40;;;;;;5194863;23;20234;-93
2023/04/26 07:44:54;;;;;;;7.70;4.88;;;9.70;72.40;;;;;;5210915;23;20240;-94
2023/04/26 07:52:26;;;;;;;7.60;4.93;;;10.00;73.00;;;;;;5135599;22;20237;-92
2023/04/26 07:54:54;;;;;;;10.18;5.47;;;10.00;69.20;;;;;;5042072;28;20183;-95
2023/04/26 07:57:23;;;;;;;10.10;5.13;;;10.20;64.80;;;;;;5047900;28;20199;-93
2023/04/26 08:02:41;;;;;;;9.18;6.00;;;10.70;63.70;;;;;;5124288;23;20245;-92
2023/04/26 08:07:50;;;;;;;12.93;6.45;;;10.50;57.10;;;;;;5302686;23;20226;-94
2023/04/26 08:12:48;;;;;;;9.00;6.22;;;10.00;63.10;;;;;;5023519;28;20211;-94
2023/04/26 08:17:56;;;;;;;7.47;5.40;;;9.90;60.60;;;;;;5023780;28;20231;-93
2023/04/26 08:20:23;;;;;;;9.57;5.97;;;10.00;56.50;;;;;;5025135;28;20222;-93
2023/04/26 08:30:48;;;;;;;8.35;5.55;;;10.90;44.50;;;;;;5182653;23;20202;-92
2023/04/26 08:33:17;;;;;;;10.60;5.28;;;10.70;47.50;;;;;;5103126;23;20255;-90
2023/04/26 08:35:44;;;;;;;9.75;5.63;;;11.10;47.80;;;;;;5003691;28;20203;-92
2023/04/26 08:38:11;;;;;;;6.65;4.85;;;11.30;43.10;;;;;;4984814;28;20204;-93
2023/04/26 08:40:43;;;;;;;8.38;4.70;;;11.50;44.40;;;;;;4982979;28;20215;-92
2023/04/26 08:43:11;;;;;;;8.32;5.22;;;11.70;47.00;;;;;;4984024;28;20200;-93
2023/04/26 08:45:41;;;;;;;6.10;4.50;;;12.00;36.60;;;;;;4980781;28;20204;-92
2023/04/26 08:48:13;;;;;;;8.63;4.78;;;12.00;33.50;;;;;;4984753;28;21198;-92
2023/04/26 08:50:42;;;;;;;9.43;4.93;;;11.40;37.60;;;;;;4974464;28;20212;-92
2023/04/26 08:53:13;;;;;;;10.07;4.47;;;11.00;36.60;;;;;;5000147;28;20294;-93
2023/04/26 08:58:27;;;;;;;7.90;4.90;;;10.50;41.00;;;;;;4981799;28;20203;-94
2023/04/26 09:04:03;;;;;;;7.78;4.80;;;9.80;60.60;;;;;;4998701;28;20211;-92
2023/04/26 09:06:30;;;;;;;10.15;4.78;;;9.70;58.50;;;;;;4983612;28;20220;-93
2023/04/26 09:14:09;;;;;;;10.48;6.07;;;9.40;60.50;;;;;;5902574;22;20216;-93
2023/04/26 09:16:36;;;;;;;7.93;5.68;;;9.50;60.60;;;;;;5798014;22;20197;-90
2023/04/26 09:19:03;;;;;;;8.63;6.03;;;9.60;59.80;;;;;;5266285;23;20210;-91
2023/04/26 09:21:31;;;;;;;10.70;5.15;;;9.80;57.40;;;;;;5154669;22;20290;-91
2023/04/26 09:23:59;;;;;;;7.95;5.80;;;9.90;55.80;;;;;;5032951;23;20239;-91
2023/04/26 09:57:37;;;;;;;7.43;4.55;;;11.90;36.10;;;;;;5080588;23;20608;-94
2023/04/26 10:18:12;;;;;;;6.45;4.10;;;10.80;43.10;;;;;;5769658;23;20218;-92
2023/04/26 10:20:43;;;;;;;5.38;3.20;;;10.70;42.10;;;;;;5254228;23;20291;-91
2023/04/26 10:28:55;;;;;;;10.35;3.25;;;11.20;36.50;;;;;;5002211;28;20212;-92
2023/04/26 10:31:22;;;;;;;5.72;3.45;;;11.30;36.00;;;;;;5000322;28;20188;-93
2023/04/26 10:34:18;;;;;;;9.45;3.78;;;11.70;35.00;;;;;;5092619;23;20200;-93
2023/04/26 10:37:17;;;;;;;6.65;2.75;;;12.60;37.90;;;;;;4987569;28;20216;-92
2023/04/26 10:39:45;;;;;;;5.38;2.95;;;13.00;26.20;;;;;;4948247;28;20204;-95
2023/04/26 10:42:24;;;;;;;5.03;2.60;;;13.40;26.50;;;;;;4995065;28;20641;-95
2023/04/26 10:44:52;;;;;;;6.10;3.13;;;13.60;33.90;;;;;;5003666;28;20644;-92
2023/04/26 10:47:30;;;;;;;3.15;2.40;;;13.80;28.00;;;;;;5001842;28;20687;-95
2023/04/26 10:50:10;;;;;;;3.13;2.65;;;14.10;27.00;;;;;;4998755;28;20231;-94
2023/04/26 10:52:59;;;;;;;7.07;2.92;;;14.10;24.90;;;;;;5011206;28;20180;-91
2023/04/26 10:55:40;;;;;;;8.70;3.60;;;14.10;27.00;;;;;;4985116;28;20266;-93
2023/04/26 11:01:10;;;;;;;5.80;3.47;;;14.20;23.70;;;;;;4993412;28;20208;-92
2023/04/26 11:03:37;;;;;;;5.57;3.38;;;14.50;24.30;;;;;;4996861;28;20315;-93
2023/04/26 11:06:08;;;;;;;6.00;3.20;;;14.30;25.50;;;;;;4974483;28;20193;-94
2023/04/26 11:08:35;;;;;;;4.30;3.03;;;14.30;20.90;;;;;;4992855;28;20314;-94
2023/04/26 11:11:10;;;;;;;6.30;3.20;;;14.20;25.40;;;;;;4976360;28;20210;-94
2023/04/26 11:18:54;;;;;;;5.65;4.20;;;14.40;21.00;;;;;;5079128;23;20209;-96
2023/04/26 11:21:31;;;;;;;6.00;3.78;;;14.20;22.20;;;;;;5027003;28;20248;-95
2023/04/26 11:24:02;;;;;;;5.97;3.75;;;13.80;23.10;;;;;;5030790;28;20203;-93
2023/04/26 11:26:33;;;;;;;3.78;3.10;;;13.80;21.10;;;;;;5031308;28;20199;-94
2023/04/26 11:29:00;;;;;;;5.82;2.90;;;13.60;22.50;;;;;;4987655;28;20315;-95
2023/04/26 11:31:31;;;;;;;4.20;3.05;;;13.30;22.50;;;;;;5024121;28;20207;-96
2023/04/26 11:34:03;;;;;;;5.00;3.15;;;13.00;22.40;;;;;;5016673;28;20662;-94
2023/04/26 11:36:31;;;;;;;6.85;3.00;;;13.00;24.30;;;;;;5030104;28;20262;-96
2023/04/26 11:39:07;;;;;;;4.57;2.90;;;13.00;23.30;;;;;;5186287;22;20226;-95
2023/04/26 11:41:35;;;;;;;6.65;2.88;;;13.60;26.70;;;;;;5767845;23;20219;-94
2023/04/26 11:44:04;;;;;;;4.35;2.65;;;13.40;22.40;;;;;;4989720;28;20315;-94
2023/04/26 11:52:24;;;;;;;6.32;3.47;;;13.20;23.00;;;;;;5136625;23;20261;-96
2023/04/26 11:55:03;;;;;;;5.85;3.60;;;13.10;24.20;;;;;;5321843;22;20262;-94
2023/04/26 11:57:35;;;;;;;6.03;4.00;;;12.90;25.00;;;;;;5089467;23;20236;-94
2023/04/26 12:00:11;;;;;;;5.85;3.90;;;12.80;26.00;;;;;;5106498;23;20681;-91
2023/04/26 12:02:40;;;;;;;8.35;3.97;;;12.70;25.90;;;;;;5000770;28;20207;-92
2023/04/26 12:05:09;;;;;;;9.02;4.03;;;12.70;24.80;;;;;;5014965;28;20176;-90
2023/04/26 12:07:37;;;;;;;6.00;3.65;;;12.80;26.00;;;;;;5010391;28;20207;-91
2023/04/26 12:10:18;;;;;;;7.50;3.40;;;13.10;26.20;;;;;;5011152;28;20228;-93
2023/04/26 12:12:47;;;;;;;6.28;3.42;;;13.30;24.40;;;;;;5000422;28;20234;-93
2023/04/26 12:25:45;;;;;;;4.03;3.50;;;13.40;22.90;;;;;;5315993;22;20263;-95
2023/04/26 12:28:27;;;;;;;6.40;2.72;;;13.50;22.20;;;;;;5141352;23;20240;-91
2023/04/26 12:30:54;;;;;;;3.83;2.72;;;13.80;23.30;;;;;;5246955;23;20259;-93
2023/04/26 12:38:35;;;;;;;5.32;3.72;;;14.20;21.20;;;;;;5926640;23;20225;-92
2023/04/26 12:46:34;;;;;;;6.95;4.13;;;13.60;23.60;;;;;;5988844;22;21681;-92
2023/04/26 12:56:44;;;;;;;4.65;3.20;;;12.80;26.00;;;;;;5046132;28;20214;-94
2023/04/26 12:59:11;;;;;;;9.23;3.95;;;12.70;25.90;;;;;;5021095;28;20203;-92
2023/04/26 13:01:38;;;;;;;6.35;3.45;;;12.60;25.80;;;;;;5332764;23;20231;-92
2023/04/26 13:09:14;;;;;;;5.85;3.45;;;13.90;23.10;;;;;;5043193;28;20219;-96
2023/04/26 13:14:23;;;;;;;11.25;3.70;;;14.20;22.80;;;;;;5383527;23;20700;-95
2023/04/26 13:16:51;;;;;;;5.35;3.22;;;13.80;20.90;;;;;;5033073;28;20205;-94
2023/04/26 13:19:18;;;;;;;7.57;4.13;;;13.40;21.70;;;;;;5187821;22;20204;-95
2023/04/26 13:21:45;;;;;;;8.35;3.78;;;13.50;23.80;;;;;;5015928;28;20195;-93
2023/04/26 13:26:58;;;;;;;5.15;3.75;;;13.40;24.10;;;;;;5382790;23;20242;-91
2023/04/26 13:29:41;;;;;;;5.03;3.67;;;13.80;25.00;;;;;;5053060;28;20301;-91
2023/04/26 13:34:53;;;;;;;6.22;3.47;;;14.10;21.10;;;;;;5540756;22;20234;-93
2023/04/26 13:39:57;;;;;;;4.72;3.58;;;13.90;21.90;;;;;;5445329;23;20233;-96
2023/04/26 13:42:26;;;;;;;4.82;3.20;;;13.80;21.40;;;;;;5029746;28;20289;-96
2023/04/26 13:44:56;;;;;;;7.45;3.25;;;13.70;21.90;;;;;;5032065;28;20225;-95
2023/04/26 13:47:24;;;;;;;7.38;3.20;;;13.60;22.20;;;;;;5017123;28;20617;-95
2023/04/26 13:49:50;;;;;;;6.88;3.40;;;13.60;22.00;;;;;;5037452;28;20264;-95
2023/04/26 13:54:53;;;;;;;61.17;36.00;;;13.80;21.60;;;;;;5777158;22;20238;-91
2023/04/26 14:02:36;;;;;;;8.57;3.92;;;14.00;20.30;;;;;;6084011;22;20194;-93
2023/04/26 14:07:42;;;;;;;3.72;2.40;;;13.80;21.80;;;;;;5630711;23;20233;-92
2023/04/26 14:10:10;;;;;;;5.55;3.15;;;14.00;21.60;;;;;;5049928;28;20294;-92
2023/04/26 14:12:37;;;;;;;6.82;3.63;;;14.20;20.60;;;;;;5182375;22;20240;-92
2023/04/26 14:15:05;;;;;;;5.65;3.17;;;14.10;20.00;;;;;;5042860;28;20259;-93
2023/04/26 14:17:33;;;;;;;4.70;3.13;;;14.10;21.40;;;;;;5004446;28;20250;-91
2023/04/26 14:20:02;;;;;;;5.22;3.13;;;14.20;20.80;;;;;;5015248;28;20199;-92
2023/04/26 14:22:34;;;;;;;4.47;2.95;;;14.20;20.00;;;;;;5010504;28;20206;-90
2023/04/26 14:25:02;;;;;;;3.97;2.90;;;14.00;19.80;;;;;;4990432;28;20214;-90
2023/04/26 14:27:29;;;;;;;6.03;3.50;;;13.80;21.30;;;;;;4998589;28;20199;-91
2023/04/26 14:29:56;;;;;;;4.70;2.67;;;13.80;20.00;;;;;;4990171;28;20293;-88
2023/04/26 14:32:23;;;;;;;5.07;2.58;;;13.60;19.50;;;;;;4995788;28;20218;-89
2023/04/26 14:34:50;;;;;;;5.03;2.72;;;13.50;20.90;;;;;;4998458;28;20199;-93
2023/04/26 14:37:21;;;;;;;4.28;2.40;;;13.30;20.60;;;;;;5008901;28;20204;-91
2023/04/26 14:39:49;;;;;;;4.38;2.40;;;13.30;21.20;;;;;;5012051;28;20241;-90
2023/04/26 14:42:16;;;;;;;5.22;3.20;;;13.40;22.80;;;;;;4998375;28;20191;-91
2023/04/26 14:44:45;;;;;;;6.13;2.50;;;13.60;20.40;;;;;;5016377;28;20196;-91
2023/04/26 14:47:12;;;;;;;5.00;2.63;;;13.60;22.50;;;;;;5017410;28;20254;-89
2023/04/26 14:49:38;;;;;;;4.20;2.40;;;13.60;20.80;;;;;;5010502;28;20675;-89
2023/04/26 14:52:05;;;;;;;6.03;2.70;;;13.30;21.00;;;;;;5023638;28;20223;-92
2023/04/26 14:54:50;;;;;;;4.03;2.45;;;13.30;22.50;;;;;;5004585;28;20968;-93
2023/04/26 14:57:23;;;;;;;5.55;2.63;;;13.50;20.50;;;;;;5024975;28;20932;-89
2023/04/26 14:59:50;;;;;;;4.10;2.90;;;13.70;20.40;;;;;;5001510;28;20242;-92
2023/04/26 15:02:17;;;;;;;7.57;2.97;;;14.00;21.50;;;;;;4998704;28;20207;-91
2023/04/26 15:04:44;;;;;;;6.00;3.08;;;13.90;20.30;;;;;;5010904;28;20214;-90
2023/04/26 15:07:11;;;;;;;10.40;3.00;;;13.80;21.10;;;;;;5015386;28;20207;-91
2023/04/26 15:09:40;;;;;;;7.00;3.33;;;13.60;21.20;;;;;;4987924;28;20227;-90
2023/04/26 15:12:07;;;;;;;6.65;3.78;;;13.30;21.70;;;;;;4996674;28;20202;-90
2023/04/26 15:14:34;;;;;;;5.72;3.35;;;12.90;22.40;;;;;;5014226;28;20253;-90
2023/04/26 15:17:01;;;;;;;5.85;3.70;;;12.80;22.80;;;;;;5012068;28;20612;-88
2023/04/26 15:19:29;;;;;;;7.75;3.80;;;12.70;23.80;;;;;;4988629;28;20282;-91
2023/04/26 15:21:56;;;;;;;4.25;3.00;;;12.60;23.30;;;;;;5015301;28;20208;-91
2023/04/26 15:24:23;;;;;;;6.20;3.03;;;12.60;23.80;;;;;;5011589;28;20206;-90
2023/04/26 15:26:51;;;;;;;5.13;3.45;;;12.60;24.50;;;;;;5001751;28;20207;-92
2023/04/26 15:29:18;;;;;;;6.50;4.10;;;12.70;24.40;;;;;;5006781;28;20220;-91
2023/04/26 15:31:45;;;;;;;6.07;3.35;;;12.80;25.20;;;;;;5007118;28;20216;-91
2023/04/26 15:34:12;;;;;;;4.88;3.50;;;13.00;22.60;;;;;;5016782;28;20203;-91
2023/04/26 15:36:39;;;;;;;5.13;3.25;;;13.00;22.00;;;;;;5003849;28;20220;-91
2023/04/26 15:39:07;;;;;;;8.52;3.70;;;13.00;22.70;;;;;;5004888;28;20206;-90
2023/04/26 15:41:34;;;;;;;3.80;3.15;;;13.00;22.60;;;;;;4996260;28;20696;-92
2023/04/26 15:44:02;;;;;;;7.22;3.60;;;13.00;23.80;;;;;;5016942;28;20199;-92
2023/04/26 15:46:29;;;;;;;5.32;3.67;;;12.90;22.50;;;;;;5014513;28;20199;-93
2023/04/26 15:49:03;;;;;;;7.22;3.38;;;12.90;22.20;;;;;;4996749;28;20210;-91
2023/04/26 15:51:30;;;;;;;3.33;3.00;;;12.90;22.60;;;;;;5001168;28;20191;-92
2023/04/26 15:53:57;;;;;;;6.28;3.13;;;12.70;23.70;;;;;;4989407;28;20258;-91
2023/04/26 15:56:25;;;;;;;3.92;3.10;;;12.70;25.90;;;;;;5006095;28;20690;-93
2023/04/26 15:58:52;;;;;;;7.30;3.40;;;12.80;26.00;;;;;;5019107;28;20687;-92
2023/04/26 16:01:21;;;;;;;6.82;3.75;;;13.00;23.30;;;;;;4995240;28;20196;-91
2023/04/26 16:03:48;;;;;;;7.10;3.20;;;13.00;24.00;;;;;;5133867;22;20230;-92
2023/04/26 16:06:15;;;;;;;7.07;3.00;;;13.10;22.40;;;;;;5029138;28;20192;-92
2023/04/26 16:08:43;;;;;;;6.60;3.10;;;13.10;22.80;;;;;;5510814;22;20302;-91
2023/04/26 16:11:10;;;;;;;4.47;3.00;;;12.90;26.10;;;;;;5042310;28;20202;-92
2023/04/26 16:13:37;;;;;;;5.07;3.33;;;12.90;26.10;;;;;;5047855;28;20198;-92
2023/04/26 16:16:09;;;;;;;6.45;3.15;;;12.70;25.90;;;;;;5050354;28;20207;-92
2023/04/26 16:18:39;;;;;;;5.22;3.10;;;12.60;25.90;;;;;;5018104;28;20238;-92
2023/04/26 16:21:08;;;;;;;7.97;3.75;;;12.70;25.90;;;;;;5168612;22;20226;-92
2023/04/26 16:23:35;;;;;;;8.75;4.15;;;12.70;25.90;;;;;;4985200;28;20207;-91
2023/04/26 16:33:50;;;;;;;7.03;3.47;;;13.10;24.40;;;;;;5699154;22;20674;-94
2023/04/26 16:36:17;;;;;;;5.07;3.38;;;12.90;24.70;;;;;;5015316;28;20203;-95
2023/04/26 16:38:43;;;;;;;9.57;3.30;;;12.80;26.00;;;;;;5020962;28;20607;-92
2023/04/26 16:41:11;;;;;;;6.10;4.93;;;12.60;24.60;;;;;;5021805;28;20211;-95
2023/04/26 16:43:37;;;;;;;6.63;3.42;;;12.60;25.80;;;;;;5043010;28;20529;-95
2023/04/26 16:48:49;;;;;;;4.80;3.35;;;12.50;25.40;;;;;;5032223;28;20211;-95
2023/04/26 16:51:16;;;;;;;5.43;3.13;;;12.40;25.70;;;;;;5025923;28;20218;-95
2023/04/26 16:56:24;;;;;;;6.22;3.65;;;12.10;25.40;;;;;;5003126;28;20550;-95
2023/04/26 16:58:51;;;;;;;7.45;2.95;;;12.00;25.30;;;;;;5027914;28;20187;-94
2023/04/26 17:01:20;;;;;;;6.65;3.00;;;11.80;25.10;;;;;;5017322;28;20256;-93
2023/04/26 17:03:47;;;;;;;8.38;3.08;;;11.70;25.10;;;;;;5026860;28;20205;-94
2023/04/26 17:09:11;;;;;;;9.38;3.10;;;11.50;24.90;;;;;;5023459;28;20195;-90
2023/04/26 17:15:15;;;;;;;4.93;3.00;;;11.40;24.80;;;;;;5002156;28;20261;-93
2023/04/26 17:23:48;;;;;;;12.52;3.78;;;11.40;27.90;;;;;;5038205;28;20193;-94
2023/04/26 17:26:15;;;;;;;7.47;3.20;;;11.30;27.70;;;;;;5018577;28;20194;-92
2023/04/26 17:32:06;;;;;;;8.10;3.20;;;11.30;27.50;;;;;;5023638;28;20270;-91
2023/04/26 17:41:26;;;;;;;5.63;3.30;;;11.30;27.80;;;;;;5018354;28;20211;-88
2023/04/26 17:44:02;;;;;;;3.95;2.80;;;11.30;29.10;;;;;;5029657;28;20273;-93
2023/04/26 17:49:00;;;;;;;6.13;2.92;;;11.20;26.50;;;;;;5022951;28;20211;-88
2023/04/26 17:51:28;;;;;;;4.78;2.80;;;11.10;27.20;;;;;;5015739;28;20207;-90
2023/04/26 17:53:55;;;;;;;5.95;3.03;;;11.00;29.10;;;;;;5011198;28;20211;-91
2023/04/26 17:56:22;;;;;;;5.15;2.97;;;10.80;28.00;;;;;;5025987;28;20187;-90
2023/04/26 18:09:12;;;;;;;4.10;2.95;;;10.50;28.00;;;;;;1588082;23;20529;-89
2023/04/26 18:11:38;;;;;;;7.75;3.25;;;10.50;28.30;;;;;;5010047;28;20236;-93
2023/04/26 18:14:05;;;;;;;7.32;2.97;;;10.40;28.70;;;;;;5005198;28;20200;-90
2023/04/26 18:16:32;;;;;;;7.18;3.30;;;10.40;28.90;;;;;;4991295;28;20196;-94
2023/04/26 18:18:59;;;;;;;10.30;3.53;;;10.30;28.70;;;;;;4995433;28;20231;-92
2023/04/26 18:21:26;;;;;;;6.97;3.92;;;10.20;29.50;;;;;;4975057;28;20192;-90
2023/04/26 18:23:53;;;;;;;7.28;3.92;;;10.20;29.30;;;;;;4991848;28;20200;-91
2023/04/26 18:26:21;;;;;;;6.82;3.38;;;10.10;28.40;;;;;;4987720;28;20192;-91
2023/04/26 18:28:49;;;;;;;5.78;3.45;;;10.10;28.70;;;;;;5154811;23;20262;-86
2023/04/26 18:31:16;;;;;;;6.90;3.72;;;10.10;29.30;;;;;;5401496;23;20227;-89
2023/04/26 18:33:44;;;;;;;9.02;3.70;;;10.00;29.40;;;;;;5009942;28;20264;-89
2023/04/26 18:36:10;;;;;;;5.70;3.45;;;9.90;31.30;;;;;;5007543;28;20196;-88
2023/04/26 18:38:37;;;;;;;11.70;3.60;;;9.90;31.30;;;;;;5010447;28;20200;-89
2023/04/26 18:43:41;;;;;;;6.55;3.70;;;9.80;31.90;;;;;;5536835;22;20259;-88
2023/04/26 18:46:08;;;;;;;6.57;3.30;;;9.80;31.80;;;;;;5045808;28;20202;-89
2023/04/26 18:48:35;;;;;;;5.40;3.33;;;9.80;32.80;;;;;;5049448;28;20183;-90
2023/04/26 18:53:37;;;;;;;7.30;3.83;;;9.70;33.40;;;;;;5486439;22;21340;-91
2023/04/26 18:56:04;;;;;;;6.53;3.75;;;9.70;34.20;;;;;;5504343;23;20239;-92
2023/04/26 19:03:43;;;;;;;8.15;5.20;;;9.90;40.50;;;;;;5456170;22;20224;-91
2023/04/26 19:06:13;;;;;;;12.18;6.85;;;10.00;36.90;;;;;;4996675;28;20191;-91
2023/04/26 19:08:40;;;;;;;8.77;5.70;;;10.00;39.00;;;;;;5084062;23;20297;-91
2023/04/26 19:11:07;;;;;;;6.63;4.07;;;9.90;42.40;;;;;;5028145;28;20210;-93
2023/04/26 19:13:34;;;;;;;15.48;4.78;;;9.90;41.70;;;;;;5036725;28;20233;-93
2023/04/26 19:18:39;;;;;;;8.25;3.95;;;9.70;46.30;;;;;;5110201;22;20243;-91
2023/04/26 19:21:08;;;;;;;8.48;4.00;;;9.60;45.50;;;;;;5463476;22;20453;-91
2023/04/26 19:23:35;;;;;;;7.53;4.60;;;9.60;48.00;;;;;;5246767;23;21062;-91
2023/04/26 19:26:04;;;;;;;9.50;4.35;;;9.50;48.00;;;;;;5031062;28;20204;-91
2023/04/26 19:28:31;;;;;;;7.35;4.22;;;9.50;47.90;;;;;;5032038;28;20200;-92
2023/04/26 19:30:58;;;;;;;12.05;4.70;;;9.50;47.90;;;;;;5023081;28;20223;-91
2023/04/26 19:33:26;;;;;;;10.13;4.97;;;9.50;48.70;;;;;;5034685;28;20205;-94
2023/04/26 19:35:57;;;;;;;10.50;5.10;;;9.50;50.80;;;;;;5023053;28;20207;-93
2023/04/26 19:38:26;;;;;;;10.85;4.63;;;9.40;52.40;;;;;;5004518;28;20203;-93
2023/04/26 19:40:53;;;;;;;7.80;4.72;;;9.20;54.10;;;;;;5005070;28;20184;-92
2023/04/26 19:43:20;;;;;;;7.95;4.40;;;9.00;56.00;;;;;;5026151;28;20190;-91
2023/04/26 19:45:47;;;;;;;9.32;5.28;;;8.80;57.90;;;;;;5129899;23;20250;-91
2023/04/26 19:48:14;;;;;;;8.68;5.00;;;8.70;61.30;;;;;;5006772;28;20191;-95
2023/04/26 19:50:42;;;;;;;11.98;4.93;;;8.60;62.40;;;;;;5010809;28;20227;-90
2023/04/26 19:58:21;;;;;;;11.30;5.25;;;8.50;68.60;;;;;;5028957;28;20218;-89
2023/04/26 20:00:48;;;;;;;15.00;4.90;;;8.50;67.90;;;;;;5032357;28;20183;-91
2023/04/26 20:03:14;;;;;;;14.73;5.40;;;8.40;70.70;;;;;;5027231;28;20198;-89
2023/04/26 20:05:41;;;;;;;12.05;5.70;;;8.40;73.30;;;;;;5078185;23;20257;-90
2023/04/26 20:08:08;;;;;;;11.05;5.90;;;8.50;73.40;;;;;;5890332;22;20204;-92
2023/04/26 20:10:35;;;;;;;7.72;5.22;;;8.50;73.40;;;;;;5045629;28;20226;-91
2023/04/26 20:13:02;;;;;;;8.68;4.88;;;8.50;73.40;;;;;;5047678;28;20203;-89
2023/04/26 20:28:39;;;;;;;10.55;6.00;;;8.40;73.30;;;;;;5143194;27;20578;-94
2023/04/26 20:31:06;;;;;;;10.82;6.50;;;8.40;77.00;;;;;;5132477;27;20191;-90
2023/04/26 20:33:33;;;;;;;11.63;6.28;;;8.20;77.40;;;;;;5141606;27;20203;-93
2023/04/26 20:35:59;;;;;;;14.18;7.35;;;8.10;79.10;;;;;;5150030;27;20691;-90
2023/04/26 20:38:27;;;;;;;10.25;6.70;;;8.10;79.50;;;;;;5135314;27;20199;-91
2023/04/26 20:40:54;;;;;;;12.13;6.47;;;8.10;79.80;;;;;;5137057;27;20205;-92
2023/04/26 20:43:20;;;;;;;10.52;6.03;;;8.00;80.90;;;;;;5142177;27;20191;-92
2023/04/26 20:45:50;;;;;;;9.68;6.55;;;8.00;81.80;;;;;;5137492;28;20779;-92
2023/04/26 20:48:17;;;;;;;11.50;6.07;;;8.00;81.90;;;;;;5142198;28;20210;-90
2023/04/26 20:50:44;;;;;;;12.70;5.90;;;8.00;82.40;;;;;;5145404;27;20214;-90
2023/04/26 20:53:10;;;;;;;8.13;5.72;;;7.90;81.70;;;;;;5137550;28;20296;-93
2023/04/26 20:55:38;;;;;;;9.80;5.90;;;7.90;81.70;;;;;;5142166;27;20210;-92
2023/04/26 20:58:05;;;;;;;7.57;5.60;;;8.00;82.00;;;;;;5140512;27;20235;-91
2023/04/26 21:00:32;;;;;;;12.82;6.30;;;8.00;82.50;;;;;;5121086;28;20252;-93
2023/04/26 21:03:01;;;;;;;9.40;6.07;;;7.90;85.50;;;;;;5138352;27;20203;-88
2023/04/26 21:05:28;;;;;;;9.48;5.70;;;7.90;84.10;;;;;;5145441;27;20235;-92
2023/04/26 21:07:55;;;;;;;8.93;5.53;;;7.90;85.30;;;;;;5140388;28;20199;-92
2023/04/26 21:10:22;;;;;;;10.63;5.28;;;8.00;85.30;;;;;;5146046;27;20201;-93
2023/04/26 21:12:50;;;;;;;9.85;5.28;;;8.10;85.40;;;;;;5144758;27;20211;-90
2023/04/26 21:15:17;;;;;;;12.48;6.75;;;8.20;83.50;;;;;;5125599;28;20464;-93
2023/04/26 21:17:44;;;;;;;10.13;5.63;;;8.10;82.70;;;;;;5134758;27;20228;-89
2023/04/26 21:20:13;;;;;;;9.88;5.70;;;8.20;83.10;;;;;;5122018;28;20192;-89
2023/04/26 21:22:39;;;;;;;9.25;5.72;;;8.20;84.60;;;;;;5120279;28;20290;-89
2023/04/26 21:25:07;;;;;;;7.80;5.28;;;8.10;85.60;;;;;;5119964;28;20516;-88
2023/04/26 21:27:35;;;;;;;11.73;5.80;;;8.00;85.20;;;;;;5114988;28;20201;-94
2023/04/26 21:30:03;;;;;;;9.82;5.40;;;8.00;87.50;;;;;;5114420;28;20320;-89
2023/04/26 21:32:30;;;;;;;10.93;5.80;;;7.80;88.00;;;;;;5120032;28;20192;-91
2023/04/26 21:34:57;;;;;;;11.43;5.78;;;7.90;88.30;;;;;;5109101;28;20210;-91
2023/04/26 21:37:25;;;;;;;10.98;7.20;;;7.80;88.60;;;;;;5116757;28;20222;-90
2023/04/26 21:39:52;;;;;;;9.82;5.75;;;7.70;88.30;;;;;;5108851;28;20188;-89
2023/04/26 21:42:20;;;;;;;8.05;5.35;;;7.80;90.20;;;;;;5101826;28;20196;-91
2023/04/26 21:44:47;;;;;;;10.05;5.65;;;7.80;90.20;;;;;;5107311;28;20207;-91
2023/04/26 21:47:14;;;;;;;9.48;5.90;;;7.80;89.90;;;;;;5105335;28;20195;-90
2023/04/26 21:49:41;;;;;;;9.95;5.60;;;7.70;89.70;;;;;;5108512;28;20256;-90
2023/04/26 21:52:08;;;;;;;8.10;5.88;;;7.70;90.20;;;;;;5109010;28;20193;-90
2023/04/26 21:54:36;;;;;;;9.93;5.57;;;7.70;90.20;;;;;;5110996;28;20192;-91
2023/04/26 21:57:05;;;;;;;10.45;6.60;;;7.70;90.20;;;;;;5105510;28;20228;-90
2023/04/26 21:59:32;;;;;;;14.23;6.32;;;7.70;90.20;;;;;;5107388;28;20197;-93
2023/04/26 22:01:59;;;;;;;11.38;7.18;;;7.70;90.20;;;;;;5111202;28;20214;-92
2023/04/26 22:04:27;;;;;;;8.57;6.18;;;7.70;90.20;;;;;;5107724;28;20173;-92
2023/04/26 22:06:54;;;;;;;10.30;5.88;;;7.70;90.20;;;;;;5114150;28;20185;-92
2023/04/26 22:09:21;;;;;;;17.33;11.20;;;7.70;90.20;;;;;;5111036;28;20280;-91
2023/04/26 22:11:49;;;;;;;11.80;7.85;;;7.70;90.20;;;;;;5110100;28;20200;-92
2023/04/26 22:14:16;;;;;;;19.58;6.93;;;7.80;90.20;;;;;;5109718;28;20205;-93
2023/04/26 22:16:43;;;;;;;13.35;5.47;;;7.90;90.20;;;;;;5111522;28;20216;-92
2023/04/26 22:19:13;;;;;;;10.25;5.70;;;7.90;90.20;;;;;;5110893;28;20218;-91
2023/04/26 22:21:40;;;;;;;12.10;6.65;;;7.80;90.20;;;;;;5099123;28;20201;-91
2023/04/26 22:24:07;;;;;;;15.02;7.70;;;7.90;87.90;;;;;;5110168;28;20270;-92
2023/04/26 22:26:34;;;;;;;9.68;6.20;;;7.80;89.40;;;;;;5106125;28;20197;-93
2023/04/26 22:29:03;;;;;;;8.55;5.70;;;7.60;90.20;;;;;;5110252;28;20229;-92
2023/04/26 22:31:30;;;;;;;8.88;5.80;;;7.60;90.20;;;;;;5101212;28;20284;-94
2023/04/26 22:33:57;;;;;;;10.02;6.03;;;7.40;90.10;;;;;;5111842;28;20200;-93
2023/04/26 22:36:24;;;;;;;8.90;5.60;;;7.40;90.70;;;;;;5118787;28;20193;-90
2023/04/26 22:38:51;;;;;;;9.82;5.80;;;7.40;91.10;;;;;;5110662;28;20185;-89
2023/04/26 22:41:18;;;;;;;9.77;5.85;;;7.40;90.90;;;;;;5114513;28;20202;-90
2023/04/26 22:43:46;;;;;;;7.07;5.00;;;7.40;91.10;;;;;;5113879;28;20184;-90
2023/04/26 22:46:14;;;;;;;7.65;5.25;;;7.40;91.10;;;;;;5105298;28;20204;-88
2023/04/26 22:48:41;;;;;;;12.40;5.53;;;7.40;91.00;;;;;;5099584;28;20204;-92
2023/04/26 22:51:08;;;;;;;7.07;5.50;;;7.30;91.20;;;;;;5109925;28;20265;-91
2023/04/26 22:53:35;;;;;;;11.45;5.63;;;7.40;91.10;;;;;;5104363;28;20201;-93
2023/04/26 22:56:02;;;;;;;8.75;5.50;;;7.30;91.30;;;;;;5104128;28;20218;-92
2023/04/26 22:58:29;;;;;;;8.73;5.05;;;7.30;91.50;;;;;;5107997;28;20242;-93
2023/04/26 23:00:56;;;;;;;11.43;5.28;;;7.40;91.60;;;;;;5110285;28;20199;-88
2023/04/26 23:03:25;;;;;;;8.77;5.28;;;7.50;91.30;;;;;;5102058;28;20622;-92
2023/04/26 23:05:52;;;;;;;9.98;5.32;;;7.50;91.30;;;;;;5108498;28;20222;-88
2023/04/26 23:08:19;;;;;;;7.50;5.35;;;7.40;91.20;;;;;;5107225;28;20216;-93
2023/04/26 23:10:46;;;;;;;10.55;5.43;;;7.40;91.30;;;;;;5108797;28;20211;-91
2023/04/26 23:13:14;;;;;;;6.63;4.55;;;7.30;91.40;;;;;;5112044;28;20268;-92
2023/04/26 23:15:42;;;;;;;8.57;5.10;;;7.40;91.70;;;;;;5104831;28;20463;-93
2023/04/26 23:18:08;;;;;;;9.02;5.20;;;7.40;91.70;;;;;;5102732;28;20324;-92